sensor_id;sensor_type;location;lat;lon;timestamp;pressure;altitude;pressure_sealevel;temperature;humidity
47716;BME280;33476;50.984;3.538;2023-08-06T00:01:42;100279.94;;;18.58;77.85
47716;BME280;33476;50.984;3.538;2023-08-06T00:04:07;100284.41;;;18.58;77.90
47716;BME280;33476;50.984;3.538;2023-08-06T00:06:33;100291.63;;;18.56;77.98
47716;BME280;33476;50.984;3.538;2023-08-06T00:08:58;100295.25;;;18.55;77.90
47716;BME280;33476;50.984;3.538;2023-08-06T00:11:24;100292.03;;;18.51;78.42
47716;BME280;33476;50.984;3.538;2023-08-06T00:13:49;100294.53;;;18.43;78.04
47716;BME280;33476;50.984;3.538;2023-08-06T00:16:15;100294.53;;;18.43;77.96
47716;BME280;33476;50.984;3.538;2023-08-06T00:18:40;100293.28;;;18.37;77.81
47716;BME280;33476;50.984;3.538;2023-08-06T00:21:05;100294.81;;;18.30;77.49
47716;BME280;33476;50.984;3.538;2023-08-06T00:23:31;100289.75;;;18.27;77.57
47716;BME280;33476;50.984;3.538;2023-08-06T00:25:56;100298.81;;;18.24;76.97
47716;BME280;33476;50.984;3.538;2023-08-06T00:28:22;100291.03;;;18.23;76.70
47716;BME280;33476;50.984;3.538;2023-08-06T00:30:53;100278.03;;;18.10;76.89
47716;BME280;33476;50.984;3.538;2023-08-06T00:33:18;100281.78;;;18.08;76.99
47716;BME280;33476;50.984;3.538;2023-08-06T00:35:44;100280.38;;;18.04;77.03
47716;BME280;33476;50.984;3.538;2023-08-06T00:38:09;100280.28;;;18.05;76.63
47716;BME280;33476;50.984;3.538;2023-08-06T00:40:34;100285.09;;;18.00;76.71
47716;BME280;33476;50.984;3.538;2023-08-06T00:43:00;100285.38;;;17.97;76.42
47716;BME280;33476;50.984;3.538;2023-08-06T00:45:25;100282.03;;;17.95;76.84
47716;BME280;33476;50.984;3.538;2023-08-06T00:47:51;100286.88;;;17.90;76.68
47716;BME280;33476;50.984;3.538;2023-08-06T00:50:17;100296.75;;;17.88;76.78
47716;BME280;33476;50.984;3.538;2023-08-06T00:52:43;100293.16;;;17.89;76.63
47716;BME280;33476;50.984;3.538;2023-08-06T00:55:09;100295.78;;;17.89;76.71
47716;BME280;33476;50.984;3.538;2023-08-06T00:57:35;100302.75;;;17.90;76.95
47716;BME280;33476;50.984;3.538;2023-08-06T01:00:00;100307.88;;;17.91;76.88
47716;BME280;33476;50.984;3.538;2023-08-06T01:02:26;100314.84;;;17.92;77.21
47716;BME280;33476;50.984;3.538;2023-08-06T01:04:51;100315.28;;;17.98;77.15
47716;BME280;33476;50.984;3.538;2023-08-06T01:10:22;100331.88;;;18.09;77.31
47716;BME280;33476;50.984;3.538;2023-08-06T01:15:49;100339.25;;;18.06;77.89
47716;BME280;33476;50.984;3.538;2023-08-06T01:18:15;100344.38;;;18.07;78.32
47716;BME280;33476;50.984;3.538;2023-08-06T01:20:41;100355.66;;;18.09;78.07
47716;BME280;33476;50.984;3.538;2023-08-06T01:23:06;100364.56;;;18.08;78.43
47716;BME280;33476;50.984;3.538;2023-08-06T01:26:02;100368.44;;;18.04;78.34
47716;BME280;33476;50.984;3.538;2023-08-06T01:28:53;100385.84;;;18.07;77.90
47716;BME280;33476;50.984;3.538;2023-08-06T01:31:41;100390.97;;;18.08;77.82
47716;BME280;33476;50.984;3.538;2023-08-06T01:34:17;100390.66;;;18.02;78.06
47716;BME280;33476;50.984;3.538;2023-08-06T01:36:43;100402.91;;;18.03;77.81
47716;BME280;33476;50.984;3.538;2023-08-06T01:39:08;100406.66;;;18.00;77.78
47716;BME280;33476;50.984;3.538;2023-08-06T01:41:34;100414.03;;;17.96;77.80
47716;BME280;33476;50.984;3.538;2023-08-06T01:43:59;100415.94;;;17.94;77.96
47716;BME280;33476;50.984;3.538;2023-08-06T01:46:25;100424.59;;;17.96;77.85
47716;BME280;33476;50.984;3.538;2023-08-06T01:48:50;100436.09;;;17.95;77.62
47716;BME280;33476;50.984;3.538;2023-08-06T01:51:16;100456.53;;;17.93;78.11
47716;BME280;33476;50.984;3.538;2023-08-06T01:53:41;100454.59;;;17.95;77.90
47716;BME280;33476;50.984;3.538;2023-08-06T01:56:07;100463.81;;;18.01;77.61
47716;BME280;33476;50.984;3.538;2023-08-06T01:58:32;100468.28;;;18.01;77.87
47716;BME280;33476;50.984;3.538;2023-08-06T02:00:57;100472.41;;;17.93;78.30
47716;BME280;33476;50.984;3.538;2023-08-06T02:03:23;100480.59;;;17.90;78.54
47716;BME280;33476;50.984;3.538;2023-08-06T02:05:48;100482.00;;;17.94;78.62
47716;BME280;33476;50.984;3.538;2023-08-06T02:08:13;100490.13;;;18.03;78.49
47716;BME280;33476;50.984;3.538;2023-08-06T02:10:39;100494.56;;;18.02;78.65
47716;BME280;33476;50.984;3.538;2023-08-06T02:13:04;100497.34;;;18.01;78.59
47716;BME280;33476;50.984;3.538;2023-08-06T02:15:30;100507.34;;;17.97;78.44
47716;BME280;33476;50.984;3.538;2023-08-06T02:17:55;100516.25;;;17.96;78.38
47716;BME280;33476;50.984;3.538;2023-08-06T02:20:20;100522.59;;;17.93;78.21
47716;BME280;33476;50.984;3.538;2023-08-06T02:22:46;100524.53;;;17.91;78.56
47716;BME280;33476;50.984;3.538;2023-08-06T02:25:11;100534.53;;;17.88;78.88
47716;BME280;33476;50.984;3.538;2023-08-06T02:27:37;100534.53;;;17.88;78.91
47716;BME280;33476;50.984;3.538;2023-08-06T02:30:03;100547.84;;;17.86;78.80
47716;BME280;33476;50.984;3.538;2023-08-06T02:32:29;100552.91;;;17.89;78.62
47716;BME280;33476;50.984;3.538;2023-08-06T02:34:56;100556.75;;;17.85;78.54
47716;BME280;33476;50.984;3.538;2023-08-06T02:37:22;100556.59;;;17.87;78.58
47716;BME280;33476;50.984;3.538;2023-08-06T02:39:47;100558.19;;;17.89;78.15
47716;BME280;33476;50.984;3.538;2023-08-06T02:42:13;100563.59;;;17.88;78.05
47716;BME280;33476;50.984;3.538;2023-08-06T02:44:38;100567.78;;;17.90;78.03
47716;BME280;33476;50.984;3.538;2023-08-06T02:47:04;100571.25;;;17.91;77.79
47716;BME280;33476;50.984;3.538;2023-08-06T02:49:29;100571.41;;;17.89;77.52
47716;BME280;33476;50.984;3.538;2023-08-06T02:51:54;100581.97;;;17.89;77.79
47716;BME280;33476;50.984;3.538;2023-08-06T02:54:20;100576.41;;;17.92;77.24
47716;BME280;33476;50.984;3.538;2023-08-06T02:56:45;100590.25;;;17.85;77.51
47716;BME280;33476;50.984;3.538;2023-08-06T02:59:12;100599.97;;;17.84;77.62
47716;BME280;33476;50.984;3.538;2023-08-06T03:01:37;100605.88;;;17.88;77.77
47716;BME280;33476;50.984;3.538;2023-08-06T03:04:03;100609.22;;;17.90;77.61
47716;BME280;33476;50.984;3.538;2023-08-06T03:06:29;100617.16;;;17.90;77.92
47716;BME280;33476;50.984;3.538;2023-08-06T03:08:54;100612.34;;;17.84;78.38
47716;BME280;33476;50.984;3.538;2023-08-06T03:11:20;100617.06;;;17.80;78.56
47716;BME280;33476;50.984;3.538;2023-08-06T03:13:46;100624.25;;;17.78;78.80
47716;BME280;33476;50.984;3.538;2023-08-06T03:16:12;100629.53;;;17.78;78.68
47716;BME280;33476;50.984;3.538;2023-08-06T03:18:37;100628.47;;;17.81;78.64
47716;BME280;33476;50.984;3.538;2023-08-06T03:21:03;100640.44;;;17.85;78.48
47716;BME280;33476;50.984;3.538;2023-08-06T03:23:28;100636.84;;;17.86;78.36
47716;BME280;33476;50.984;3.538;2023-08-06T03:25:53;100651.97;;;17.84;78.36
47716;BME280;33476;50.984;3.538;2023-08-06T03:28:19;100649.34;;;17.84;78.25
47716;BME280;33476;50.984;3.538;2023-08-06T03:30:45;100653.09;;;17.81;78.35
47716;BME280;33476;50.984;3.538;2023-08-06T03:33:10;100661.13;;;17.80;78.42
47716;BME280;33476;50.984;3.538;2023-08-06T03:35:35;100660.88;;;17.83;78.17
47716;BME280;33476;50.984;3.538;2023-08-06T03:38:01;100668.81;;;17.83;77.96
47716;BME280;33476;50.984;3.538;2023-08-06T03:40:26;100671.69;;;17.80;77.84
47716;BME280;33476;50.984;3.538;2023-08-06T03:42:52;100684.78;;;17.81;77.64
47716;BME280;33476;50.984;3.538;2023-08-06T03:45:17;100681.88;;;17.84;77.24
47716;BME280;33476;50.984;3.538;2023-08-06T03:47:43;100689.09;;;17.82;77.28
47716;BME280;33476;50.984;3.538;2023-08-06T03:50:08;100696.41;;;17.79;77.35
47716;BME280;33476;50.984;3.538;2023-08-06T03:52:34;100694.75;;;17.78;77.32
47716;BME280;33476;50.984;3.538;2023-08-06T03:54:59;100702.56;;;17.79;76.89
47716;BME280;33476;50.984;3.538;2023-08-06T03:57:24;100706.97;;;17.79;76.86
47716;BME280;33476;50.984;3.538;2023-08-06T03:59:50;100704.34;;;17.79;76.70
47716;BME280;33476;50.984;3.538;2023-08-06T04:02:15;100711.69;;;17.75;76.63
47716;BME280;33476;50.984;3.538;2023-08-06T04:04:40;100714.31;;;17.75;76.60
47716;BME280;33476;50.984;3.538;2023-08-06T04:07:06;100719.72;;;17.74;76.13
47716;BME280;33476;50.984;3.538;2023-08-06T04:09:31;100727.88;;;17.71;76.03
47716;BME280;33476;50.984;3.538;2023-08-06T04:11:56;100736.03;;;17.67;75.62
47716;BME280;33476;50.984;3.538;2023-08-06T04:14:23;100734.34;;;17.66;75.64
47716;BME280;33476;50.984;3.538;2023-08-06T04:16:49;100744.78;;;17.68;75.31
47716;BME280;33476;50.984;3.538;2023-08-06T04:19:14;100763.16;;;17.69;75.00
47716;BME280;33476;50.984;3.538;2023-08-06T04:21:40;100769.22;;;17.72;74.73
47716;BME280;33476;50.984;3.538;2023-08-06T04:24:05;100766.44;;;17.73;74.56
47716;BME280;33476;50.984;3.538;2023-08-06T04:26:30;100765.91;;;17.68;74.53
47716;BME280;33476;50.984;3.538;2023-08-06T04:28:56;100774.69;;;17.68;74.58
47716;BME280;33476;50.984;3.538;2023-08-06T04:31:22;100782.50;;;17.70;74.62
47716;BME280;33476;50.984;3.538;2023-08-06T04:33:48;100782.50;;;17.70;74.16
47716;BME280;33476;50.984;3.538;2023-08-06T04:36:13;100789.56;;;17.69;74.05
47716;BME280;33476;50.984;3.538;2023-08-06T04:38:39;100802.91;;;17.68;73.96
47716;BME280;33476;50.984;3.538;2023-08-06T04:41:06;100798.00;;;17.63;74.29
47716;BME280;33476;50.984;3.538;2023-08-06T04:43:32;100800.63;;;17.63;73.96
47716;BME280;33476;50.984;3.538;2023-08-06T04:45:57;100810.38;;;17.63;73.68
47716;BME280;33476;50.984;3.538;2023-08-06T04:48:23;100818.88;;;17.66;73.45
47716;BME280;33476;50.984;3.538;2023-08-06T04:50:50;100821.97;;;17.60;73.50
47716;BME280;33476;50.984;3.538;2023-08-06T04:53:16;100831.72;;;17.60;73.54
47716;BME280;33476;50.984;3.538;2023-08-06T04:55:42;100843.09;;;17.60;73.30
47716;BME280;33476;50.984;3.538;2023-08-06T04:58:09;100837.69;;;17.62;73.29
47716;BME280;33476;50.984;3.538;2023-08-06T05:00:35;100843.09;;;17.60;72.95
47716;BME280;33476;50.984;3.538;2023-08-06T05:03:00;100846.13;;;17.56;73.01
47716;BME280;33476;50.984;3.538;2023-08-06T05:05:28;100850.56;;;17.55;73.03
47716;BME280;33476;50.984;3.538;2023-08-06T05:07:55;100853.41;;;17.52;73.05
47716;BME280;33476;50.984;3.538;2023-08-06T05:10:21;100852.69;;;17.50;73.03
47716;BME280;33476;50.984;3.538;2023-08-06T05:12:46;100856.44;;;17.48;73.00
47716;BME280;33476;50.984;3.538;2023-08-06T05:15:12;100861.34;;;17.52;72.96
47716;BME280;33476;50.984;3.538;2023-08-06T05:17:37;100856.69;;;17.56;72.62
47716;BME280;33476;50.984;3.538;2023-08-06T05:20:03;100867.13;;;17.46;72.76
47716;BME280;33476;50.984;3.538;2023-08-06T05:22:28;100863.00;;;17.42;72.86
47716;BME280;33476;50.984;3.538;2023-08-06T05:24:54;100867.56;;;17.40;73.02
47716;BME280;33476;50.984;3.538;2023-08-06T05:27:19;100871.53;;;17.46;72.74
47716;BME280;33476;50.984;3.538;2023-08-06T05:29:45;100879.09;;;17.50;72.98
47716;BME280;33476;50.984;3.538;2023-08-06T05:32:10;100879.94;;;17.51;72.82
47716;BME280;33476;50.984;3.538;2023-08-06T05:34:36;100891.59;;;17.48;72.98
47716;BME280;33476;50.984;3.538;2023-08-06T05:37:02;100896.75;;;17.50;73.09
47716;BME280;33476;50.984;3.538;2023-08-06T05:39:27;100894.94;;;17.50;73.07
47716;BME280;33476;50.984;3.538;2023-08-06T05:41:53;100908.03;;;17.52;73.28
47716;BME280;33476;50.984;3.538;2023-08-06T05:44:18;100903.47;;;17.54;73.48
47716;BME280;33476;50.984;3.538;2023-08-06T05:46:44;100914.16;;;17.52;73.46
47716;BME280;33476;50.984;3.538;2023-08-06T05:49:09;100918.47;;;17.53;73.31
47716;BME280;33476;50.984;3.538;2023-08-06T05:51:34;100919.31;;;17.54;73.33
47716;BME280;33476;50.984;3.538;2023-08-06T05:54:00;100922.91;;;17.53;73.63
47716;BME280;33476;50.984;3.538;2023-08-06T05:56:25;100925.47;;;17.54;73.68
47716;BME280;33476;50.984;3.538;2023-08-06T05:58:50;100926.53;;;17.52;73.88
47716;BME280;33476;50.984;3.538;2023-08-06T06:01:18;100934.06;;;17.45;74.04
47716;BME280;33476;50.984;3.538;2023-08-06T06:03:43;100930.56;;;17.45;73.95
47716;BME280;33476;50.984;3.538;2023-08-06T06:06:09;100942.50;;;17.50;73.94
47716;BME280;33476;50.984;3.538;2023-08-06T06:08:34;100928.13;;;17.54;73.68
47716;BME280;33476;50.984;3.538;2023-08-06T06:10:59;100934.94;;;17.57;73.50
47716;BME280;33476;50.984;3.538;2023-08-06T06:13:25;100943.84;;;17.67;73.35
47716;BME280;33476;50.984;3.538;2023-08-06T06:15:54;100955.16;;;17.69;72.98
47716;BME280;33476;50.984;3.538;2023-08-06T06:18:20;100959.88;;;17.77;72.69
47716;BME280;33476;50.984;3.538;2023-08-06T06:20:45;100963.03;;;17.82;72.47
47716;BME280;33476;50.984;3.538;2023-08-06T06:23:10;100977.91;;;17.83;72.35
47716;BME280;33476;50.984;3.538;2023-08-06T06:25:36;100987.41;;;17.85;72.14
47716;BME280;33476;50.984;3.538;2023-08-06T06:28:01;100991.13;;;17.83;71.80
47716;BME280;33476;50.984;3.538;2023-08-06T06:30:27;100996.16;;;17.75;72.43
47716;BME280;33476;50.984;3.538;2023-08-06T06:32:52;100999.50;;;17.77;72.48
47716;BME280;33476;50.984;3.538;2023-08-06T06:35:17;100996.75;;;17.78;72.01
47716;BME280;33476;50.984;3.538;2023-08-06T06:37:43;101000.34;;;17.77;72.11
47716;BME280;33476;50.984;3.538;2023-08-06T06:40:08;101006.13;;;17.71;72.31
47716;BME280;33476;50.984;3.538;2023-08-06T06:42:34;101004.31;;;17.72;72.44
47716;BME280;33476;50.984;3.538;2023-08-06T06:44:59;101013.56;;;17.77;72.03
47716;BME280;33476;50.984;3.538;2023-08-06T06:47:25;101023.91;;;17.80;71.93
47716;BME280;33476;50.984;3.538;2023-08-06T06:49:51;101023.56;;;17.85;71.72
47716;BME280;33476;50.984;3.538;2023-08-06T06:52:16;101020.22;;;17.94;71.68
47716;BME280;33476;50.984;3.538;2023-08-06T06:54:41;101033.56;;;17.92;71.67
47716;BME280;33476;50.984;3.538;2023-08-06T06:57:07;101032.59;;;17.93;71.65
47716;BME280;33476;50.984;3.538;2023-08-06T06:59:32;101033.81;;;18.01;71.06
47716;BME280;33476;50.984;3.538;2023-08-06T07:01:57;101035.28;;;18.05;71.07
47716;BME280;33476;50.984;3.538;2023-08-06T07:04:23;101035.03;;;18.08;70.52
47716;BME280;33476;50.984;3.538;2023-08-06T07:06:48;101038.19;;;18.13;70.70
47716;BME280;33476;50.984;3.538;2023-08-06T07:09:14;101040.13;;;18.22;70.42
47716;BME280;33476;50.984;3.538;2023-08-06T07:11:39;101034.25;;;18.30;69.84
47716;BME280;33476;50.984;3.538;2023-08-06T07:14:04;101036.06;;;18.40;69.26
47716;BME280;33476;50.984;3.538;2023-08-06T07:16:30;101040.25;;;18.43;68.95
47716;BME280;33476;50.984;3.538;2023-08-06T07:18:55;101041.09;;;18.43;68.34
47716;BME280;33476;50.984;3.538;2023-08-06T07:21:21;101047.84;;;18.47;68.14
47716;BME280;33476;50.984;3.538;2023-08-06T07:23:46;101044.75;;;18.53;68.12
47716;BME280;33476;50.984;3.538;2023-08-06T07:26:15;101052.06;;;18.61;67.16
47716;BME280;33476;50.984;3.538;2023-08-06T07:28:40;101055.53;;;18.62;67.13
47716;BME280;33476;50.984;3.538;2023-08-06T07:31:05;101060.94;;;18.60;67.13
47716;BME280;33476;50.984;3.538;2023-08-06T07:33:31;101066.13;;;18.50;67.10
47716;BME280;33476;50.984;3.538;2023-08-06T07:35:56;101065.03;;;18.42;67.21
47716;BME280;33476;50.984;3.538;2023-08-06T07:38:22;101067.78;;;18.29;67.67
47716;BME280;33476;50.984;3.538;2023-08-06T07:40:47;101072.69;;;18.22;67.55
47716;BME280;33476;50.984;3.538;2023-08-06T07:43:12;101072.69;;;18.22;67.55
47716;BME280;33476;50.984;3.538;2023-08-06T07:45:38;101075.53;;;18.19;67.39
47716;BME280;33476;50.984;3.538;2023-08-06T07:48:04;101077.34;;;18.19;67.38
47716;BME280;33476;50.984;3.538;2023-08-06T07:50:29;101068.13;;;18.24;67.23
47716;BME280;33476;50.984;3.538;2023-08-06T07:52:55;101076.44;;;18.31;66.82
47716;BME280;33476;50.984;3.538;2023-08-06T07:55:20;101072.13;;;18.30;66.90
47716;BME280;33476;50.984;3.538;2023-08-06T07:57:45;101082.81;;;18.40;66.86
47716;BME280;33476;50.984;3.538;2023-08-06T08:00:11;101071.88;;;18.33;66.56
47716;BME280;33476;50.984;3.538;2023-08-06T08:02:36;101072.31;;;18.27;66.36
47716;BME280;33476;50.984;3.538;2023-08-06T08:05:02;101079.91;;;18.20;66.55
47716;BME280;33476;50.984;3.538;2023-08-06T08:07:27;101075.19;;;18.13;66.78
47716;BME280;33476;50.984;3.538;2023-08-06T08:09:55;101103.50;;;18.00;66.75
47716;BME280;33476;50.984;3.538;2023-08-06T08:12:21;101089.75;;;17.94;66.86
47716;BME280;33476;50.984;3.538;2023-08-06T08:14:46;101087.13;;;17.94;66.67
47716;BME280;33476;50.984;3.538;2023-08-06T08:17:11;101091.34;;;17.97;66.50
47716;BME280;33476;50.984;3.538;2023-08-06T08:19:37;101092.69;;;18.03;66.07
47716;BME280;33476;50.984;3.538;2023-08-06T08:22:02;101090.88;;;18.03;65.83
47716;BME280;33476;50.984;3.538;2023-08-06T08:24:28;101095.97;;;18.06;65.80
47716;BME280;33476;50.984;3.538;2023-08-06T08:26:55;101097.50;;;18.09;65.82
47716;BME280;33476;50.984;3.538;2023-08-06T08:29:21;101097.28;;;18.12;65.58
47716;BME280;33476;50.984;3.538;2023-08-06T08:31:47;101093.69;;;18.13;65.81
47716;BME280;33476;50.984;3.538;2023-08-06T08:34:23;101098.75;;;18.16;65.72
47716;BME280;33476;50.984;3.538;2023-08-06T08:36:48;101106.44;;;18.19;65.70
47716;BME280;33476;50.984;3.538;2023-08-06T08:39:15;101094.91;;;18.20;65.79
47716;BME280;33476;50.984;3.538;2023-08-06T08:41:40;101103.22;;;18.27;65.46
47716;BME280;33476;50.984;3.538;2023-08-06T08:44:08;101104.69;;;18.31;65.20
47716;BME280;33476;50.984;3.538;2023-08-06T08:46:40;101104.28;;;18.24;65.05
47716;BME280;33476;50.984;3.538;2023-08-06T08:49:06;101111.50;;;18.22;64.81
47716;BME280;33476;50.984;3.538;2023-08-06T08:51:33;101109.00;;;18.20;65.22
47716;BME280;33476;50.984;3.538;2023-08-06T08:53:59;101115.00;;;18.22;65.41
47716;BME280;33476;50.984;3.538;2023-08-06T08:56:27;101112.81;;;18.28;65.05
47716;BME280;33476;50.984;3.538;2023-08-06T08:58:53;101110.69;;;18.33;64.86
47716;BME280;33476;50.984;3.538;2023-08-06T09:01:21;101122.81;;;18.35;64.92
47716;BME280;33476;50.984;3.538;2023-08-06T09:03:47;101127.53;;;18.43;64.84
47716;BME280;33476;50.984;3.538;2023-08-06T09:06:13;101142.09;;;18.37;65.00
47716;BME280;33476;50.984;3.538;2023-08-06T09:08:47;101140.09;;;18.28;65.52
47716;BME280;33476;50.984;3.538;2023-08-06T09:11:16;101130.28;;;18.30;65.72
47716;BME280;33476;50.984;3.538;2023-08-06T09:13:42;101136.81;;;18.37;66.14
47716;BME280;33476;50.984;3.538;2023-08-06T09:16:07;101149.53;;;18.43;65.87
47716;BME280;33476;50.984;3.538;2023-08-06T09:18:33;101154.03;;;18.54;65.44
47716;BME280;33476;50.984;3.538;2023-08-06T09:20:58;101157.03;;;18.61;65.31
47716;BME280;33476;50.984;3.538;2023-08-06T09:23:30;101155.84;;;18.65;65.20
47716;BME280;33476;50.984;3.538;2023-08-06T09:25:57;101167.31;;;18.65;65.28
47716;BME280;33476;50.984;3.538;2023-08-06T09:28:23;101163.06;;;18.63;65.26
47716;BME280;33476;50.984;3.538;2023-08-06T09:30:50;101177.78;;;18.67;65.25
47716;BME280;33476;50.984;3.538;2023-08-06T09:33:18;101170.34;;;18.72;64.92
47716;BME280;33476;50.984;3.538;2023-08-06T09:35:46;101175.03;;;18.79;64.52
47716;BME280;33476;50.984;3.538;2023-08-06T09:38:12;101176.84;;;18.90;64.67
47716;BME280;33476;50.984;3.538;2023-08-06T09:40:38;101171.56;;;19.01;64.25
47716;BME280;33476;50.984;3.538;2023-08-06T09:43:04;101195.88;;;19.06;64.28
47716;BME280;33476;50.984;3.538;2023-08-06T09:45:35;101198.16;;;18.89;64.93
47716;BME280;33476;50.984;3.538;2023-08-06T09:48:03;101194.88;;;18.74;65.83
47716;BME280;33476;50.984;3.538;2023-08-06T09:50:31;101201.25;;;18.71;66.33
47716;BME280;33476;50.984;3.538;2023-08-06T09:52:58;101204.84;;;18.70;65.86
47716;BME280;33476;50.984;3.538;2023-08-06T09:55:24;101207.84;;;18.77;65.57
47716;BME280;33476;50.984;3.538;2023-08-06T09:57:53;101202.34;;;18.91;65.31
47716;BME280;33476;50.984;3.538;2023-08-06T10:00:19;101213.31;;;18.98;64.46
47716;BME280;33476;50.984;3.538;2023-08-06T10:02:45;101214.50;;;18.94;64.51
47716;BME280;33476;50.984;3.538;2023-08-06T10:05:11;101212.09;;;18.91;64.08
47716;BME280;33476;50.984;3.538;2023-08-06T10:07:37;101217.66;;;18.99;63.64
47716;BME280;33476;50.984;3.538;2023-08-06T10:10:06;101223.44;;;19.15;63.05
47716;BME280;33476;50.984;3.538;2023-08-06T10:12:34;101221.78;;;19.25;62.13
47716;BME280;33476;50.984;3.538;2023-08-06T10:15:04;101221.03;;;19.34;61.59
47716;BME280;33476;50.984;3.538;2023-08-06T10:17:33;101225.28;;;19.37;61.29
47716;BME280;33476;50.984;3.538;2023-08-06T10:20:00;101227.56;;;19.42;60.96
47716;BME280;33476;50.984;3.538;2023-08-06T10:22:25;101239.00;;;19.53;60.86
47716;BME280;33476;50.984;3.538;2023-08-06T10:24:57;101233.34;;;19.69;60.67
47716;BME280;33476;50.984;3.538;2023-08-06T10:27:30;101240.34;;;19.81;59.34
47716;BME280;33476;50.984;3.538;2023-08-06T10:30:20;101241.31;;;19.80;59.43
47716;BME280;33476;50.984;3.538;2023-08-06T10:32:47;101238.66;;;19.69;58.79
47716;BME280;33476;50.984;3.538;2023-08-06T10:41:03;101246.25;;;19.62;58.94
47716;BME280;33476;50.984;3.538;2023-08-06T10:45:56;101246.13;;;19.64;58.65
47716;BME280;33476;50.984;3.538;2023-08-06T10:51:00;101254.44;;;19.59;59.29
47716;BME280;33476;50.984;3.538;2023-08-06T10:53:26;101264.16;;;19.48;59.20
47716;BME280;33476;50.984;3.538;2023-08-06T10:55:51;101265.13;;;19.47;58.98
47716;BME280;33476;50.984;3.538;2023-08-06T10:58:17;101268.50;;;19.49;59.73
47716;BME280;33476;50.984;3.538;2023-08-06T11:00:42;101265.28;;;19.68;59.80
47716;BME280;33476;50.984;3.538;2023-08-06T11:03:08;101259.84;;;19.80;59.55
47716;BME280;33476;50.984;3.538;2023-08-06T11:05:34;101261.19;;;19.75;60.12
47716;BME280;33476;50.984;3.538;2023-08-06T11:07:59;101289.00;;;19.58;60.28
47716;BME280;33476;50.984;3.538;2023-08-06T11:10:25;101288.13;;;19.46;61.12
47716;BME280;33476;50.984;3.538;2023-08-06T11:12:50;101290.41;;;19.40;61.34
47716;BME280;33476;50.984;3.538;2023-08-06T11:15:16;101297.63;;;19.38;61.46
47716;BME280;33476;50.984;3.538;2023-08-06T11:17:41;101299.19;;;19.40;61.27
47716;BME280;33476;50.984;3.538;2023-08-06T11:20:07;101301.50;;;19.45;61.45
47716;BME280;33476;50.984;3.538;2023-08-06T11:22:33;101294.75;;;19.52;61.33
47716;BME280;33476;50.984;3.538;2023-08-06T11:24:59;101295.88;;;19.60;61.26
47716;BME280;33476;50.984;3.538;2023-08-06T11:27:26;101306.19;;;19.52;60.58
47716;BME280;33476;50.984;3.538;2023-08-06T11:29:52;101298.63;;;19.59;60.40
47716;BME280;33476;50.984;3.538;2023-08-06T11:32:18;101286.25;;;19.71;59.59
47716;BME280;33476;50.984;3.538;2023-08-06T11:34:43;101287.31;;;19.79;59.27
47716;BME280;33476;50.984;3.538;2023-08-06T11:37:09;101292.88;;;19.87;59.07
47716;BME280;33476;50.984;3.538;2023-08-06T11:39:36;101289.34;;;19.76;59.50
47716;BME280;33476;50.984;3.538;2023-08-06T11:42:04;101296.81;;;19.59;60.24
47716;BME280;33476;50.984;3.538;2023-08-06T11:44:31;101305.34;;;19.41;61.37
47716;BME280;33476;50.984;3.538;2023-08-06T11:46:59;101311.47;;;19.41;61.77
47716;BME280;33476;50.984;3.538;2023-08-06T11:49:48;101310.88;;;19.38;61.97
47716;BME280;33476;50.984;3.538;2023-08-06T11:52:16;101319.69;;;19.38;62.37
47716;BME280;33476;50.984;3.538;2023-08-06T11:54:43;101319.28;;;19.31;62.98
47716;BME280;33476;50.984;3.538;2023-08-06T11:57:10;101319.28;;;19.20;63.37
47716;BME280;33476;50.984;3.538;2023-08-06T11:59:37;101320.13;;;19.21;63.70
47716;BME280;33476;50.984;3.538;2023-08-06T12:02:04;101331.06;;;19.27;63.77
47716;BME280;33476;50.984;3.538;2023-08-06T12:05:02;101326.03;;;19.35;63.56
47716;BME280;33476;50.984;3.538;2023-08-06T12:07:31;101324.47;;;19.44;62.85
47716;BME280;33476;50.984;3.538;2023-08-06T12:09:57;101324.13;;;19.49;62.63
47716;BME280;33476;50.984;3.538;2023-08-06T12:12:23;101323.28;;;19.48;62.38
47716;BME280;33476;50.984;3.538;2023-08-06T12:14:48;101324.72;;;19.41;62.62
47716;BME280;33476;50.984;3.538;2023-08-06T12:17:14;101324.13;;;19.38;63.13
47716;BME280;33476;50.984;3.538;2023-08-06T12:19:39;101336.03;;;19.32;62.82
47716;BME280;33476;50.984;3.538;2023-08-06T12:22:05;101344.34;;;19.39;62.14
47716;BME280;33476;50.984;3.538;2023-08-06T12:24:30;101340.63;;;19.41;61.44
47716;BME280;33476;50.984;3.538;2023-08-06T12:26:59;101339.31;;;19.47;60.84
47716;BME280;33476;50.984;3.538;2023-08-06T12:29:25;101341.38;;;19.54;60.02
47716;BME280;33476;50.984;3.538;2023-08-06T12:31:51;101341.25;;;19.56;60.21
47716;BME280;33476;50.984;3.538;2023-08-06T12:34:16;101346.97;;;19.62;60.43
47716;BME280;33476;50.984;3.538;2023-08-06T12:36:41;101352.59;;;19.69;60.00
47716;BME280;33476;50.984;3.538;2023-08-06T12:39:07;101367.44;;;19.72;59.77
47716;BME280;33476;50.984;3.538;2023-08-06T12:41:32;101363.09;;;19.71;59.74
47716;BME280;33476;50.984;3.538;2023-08-06T12:43:58;101371.16;;;19.58;60.34
47716;BME280;33476;50.984;3.538;2023-08-06T12:46:23;101375.06;;;19.52;60.73
47716;BME280;33476;50.984;3.538;2023-08-06T12:48:49;101379.78;;;19.49;61.22
47716;BME280;33476;50.984;3.538;2023-08-06T12:51:14;101378.16;;;19.35;61.49
47716;BME280;33476;50.984;3.538;2023-08-06T12:53:39;101379.81;;;19.25;61.54
47716;BME280;33476;50.984;3.538;2023-08-06T12:56:05;101370.69;;;19.29;61.89
47716;BME280;33476;50.984;3.538;2023-08-06T12:58:31;101383.59;;;19.33;61.60
47716;BME280;33476;50.984;3.538;2023-08-06T13:00:56;101377.59;;;19.43;61.20
47716;BME280;33476;50.984;3.538;2023-08-06T13:03:21;101380.09;;;19.44;60.80